createdAt,value
2023-02-14T00:01:16.979Z,88.19
2023-02-14T00:03:44.481Z,87.67
2023-02-14T00:06:14.012Z,88.22
2023-02-14T00:08:44.325Z,88.18
2023-02-14T00:11:12.390Z,88.55
2023-02-14T00:14:01.261Z,88.60
2023-02-14T00:16:27.855Z,89.70
2023-02-14T00:19:04.681Z,89.56
2023-02-14T00:21:32.938Z,89.85
2023-02-14T00:24:00.451Z,89.37
2023-02-14T00:26:27.977Z,89.83
2023-02-14T00:28:56.837Z,90.75
2023-02-14T00:31:24.773Z,91.66
2023-02-14T00:33:52.326Z,91.41
2023-02-14T00:36:20.954Z,91.79
2023-02-14T00:38:48.466Z,91.92
2023-02-14T00:41:19.207Z,91.83
2023-02-14T00:43:47.752Z,92.31
2023-02-14T00:46:17.412Z,92.54
2023-02-14T00:48:44.957Z,92.86
2023-02-14T00:51:12.547Z,93.49
2023-02-14T00:53:40.442Z,93.62
2023-02-14T00:56:08.716Z,94.14
2023-02-14T00:58:36.254Z,94.35
2023-02-14T01:01:03.901Z,93.81
2023-02-14T01:03:33.569Z,93.26
2023-02-14T01:06:01.178Z,92.74
2023-02-14T01:08:28.754Z,92.67
2023-02-14T01:10:56.232Z,92.47
2023-02-14T01:13:23.765Z,92.58
2023-02-14T01:15:53.007Z,92.57
2023-02-14T01:18:20.494Z,92.85
2023-02-14T01:20:49.435Z,92.55
2023-02-14T01:23:16.889Z,92.40
2023-02-14T01:25:44.370Z,92.07
2023-02-14T01:28:11.902Z,92.26
2023-02-14T01:30:39.483Z,92.34
2023-02-14T01:33:06.981Z,92.71
2023-02-14T01:35:38.515Z,92.93
2023-02-14T01:38:07.570Z,93.56
2023-02-14T01:40:35.416Z,93.20
2023-02-14T01:43:02.846Z,93.25
2023-02-14T01:45:31.903Z,93.79
2023-02-14T01:47:59.575Z,93.93
2023-02-14T01:50:29.725Z,94.06
2023-02-14T01:53:00.136Z,94.00
2023-02-14T01:55:31.533Z,93.73
2023-02-14T01:58:01.669Z,94.03
2023-02-14T02:00:52.063Z,93.47
2023-02-14T02:03:20.372Z,93.38
2023-02-14T02:05:49.925Z,94.76
2023-02-14T02:08:17.666Z,94.36
2023-02-14T02:10:46.488Z,94.51
2023-02-14T02:13:17.770Z,94.01
2023-02-14T02:15:51.561Z,94.59
2023-02-14T02:18:25.114Z,93.94
2023-02-14T02:21:12.161Z,94.90
2023-02-14T02:23:57.717Z,94.66
2023-02-14T02:26:58.756Z,94.55
2023-02-14T02:29:49.392Z,94.72
2023-02-14T02:32:40.655Z,94.84
2023-02-14T02:35:22.075Z,94.38
2023-02-14T02:37:59.839Z,94.55
2023-02-14T02:40:37.540Z,93.93
2023-02-14T02:43:16.763Z,94.58
2023-02-14T02:46:05.893Z,94.48
2023-02-14T02:48:38.348Z,94.21
2023-02-14T02:51:28.000Z,93.66
2023-02-14T02:54:00.188Z,93.79
2023-02-14T02:56:46.724Z,94.12
2023-02-14T02:59:19.095Z,93.70
2023-02-14T03:01:50.893Z,94.25
2023-02-14T03:04:37.337Z,93.88
2023-02-14T03:07:27.045Z,93.94
2023-02-14T03:09:57.737Z,94.21
2023-02-14T03:13:07.913Z,93.96
2023-02-14T03:15:42.638Z,93.71
2023-02-14T03:18:33.948Z,94.03
2023-02-14T03:21:07.822Z,93.77
2023-02-14T03:23:40.283Z,93.60
2023-02-14T03:26:15.041Z,93.37
2023-02-14T03:28:46.007Z,93.48
2023-02-14T03:31:21.330Z,93.43
2023-02-14T03:33:52.268Z,93.55
2023-02-14T03:36:22.878Z,93.75
2023-02-14T03:38:56.102Z,94.21
2023-02-14T03:41:27.291Z,93.91
2023-02-14T03:43:58.227Z,93.54
2023-02-14T03:46:29.231Z,93.58
2023-02-14T03:48:59.319Z,92.58
2023-02-14T03:51:27.523Z,92.16
2023-02-14T03:53:58.077Z,92.00
2023-02-14T03:56:31.107Z,91.60
2023-02-14T03:59:01.383Z,91.36
2023-02-14T04:01:32.016Z,91.63
2023-02-14T04:04:00.239Z,91.90
2023-02-14T04:06:27.750Z,92.59
2023-02-14T04:08:56.674Z,92.18
2023-02-14T04:11:24.704Z,92.62
2023-02-14T04:13:52.287Z,93.03
2023-02-14T04:16:19.792Z,93.29
2023-02-14T04:19:05.080Z,93.65
2023-02-14T04:21:32.627Z,94.15
2023-02-14T04:24:01.484Z,93.88
2023-02-14T04:26:28.993Z,93.91
2023-02-14T04:28:56.454Z,93.73
2023-02-14T04:31:24.051Z,94.12
2023-02-14T04:33:51.565Z,93.96
2023-02-14T04:36:19.056Z,94.28
2023-02-14T04:38:46.546Z,94.53
2023-02-14T04:41:15.337Z,94.63
2023-02-14T04:43:42.822Z,95.15
2023-02-14T04:46:10.296Z,93.98
2023-02-14T04:48:37.793Z,94.00
2023-02-14T04:51:06.706Z,94.68
2023-02-14T04:53:40.038Z,95.25
2023-02-14T04:56:07.953Z,95.43
2023-02-14T04:58:36.822Z,94.86
2023-02-14T05:01:04.383Z,95.38
2023-02-14T05:03:32.008Z,95.36
2023-02-14T05:05:59.447Z,95.38
2023-02-14T05:08:26.914Z,94.31
2023-02-14T05:10:55.615Z,94.19
2023-02-14T05:13:23.362Z,92.73
2023-02-14T05:15:52.247Z,92.82
2023-02-14T05:18:19.764Z,92.87
2023-02-14T05:20:50.233Z,93.55
2023-02-14T05:23:17.768Z,93.13
2023-02-14T05:25:45.382Z,92.95
2023-02-14T05:28:12.910Z,93.39
2023-02-14T05:30:40.879Z,93.16
2023-02-14T05:33:09.893Z,93.24
2023-02-14T05:35:37.586Z,92.99
2023-02-14T05:38:05.268Z,93.56
2023-02-14T05:40:32.902Z,93.45
2023-02-14T05:43:00.443Z,93.42
2023-02-14T05:45:27.991Z,93.03
2023-02-14T05:47:55.481Z,93.26
2023-02-14T05:50:24.400Z,93.91
2023-02-14T05:52:51.890Z,93.76
2023-02-14T05:55:19.433Z,94.34
2023-02-14T05:57:46.957Z,95.00
2023-02-14T06:00:15.758Z,96.03
2023-02-14T06:02:43.261Z,95.19
2023-02-14T06:05:10.763Z,94.21
2023-02-14T06:07:39.607Z,94.82
2023-02-14T06:10:09.793Z,94.86
2023-02-14T06:12:37.332Z,94.86
2023-02-14T06:15:05.477Z,95.03
2023-02-14T06:17:32.924Z,95.00
2023-02-14T06:20:45.360Z,95.18
2023-02-14T06:23:14.296Z,94.97
2023-02-14T06:25:41.799Z,95.46
2023-02-14T06:28:09.278Z,95.35
2023-02-14T06:30:36.868Z,95.99
2023-02-14T06:33:04.688Z,96.29
2023-02-14T06:35:32.219Z,95.84
2023-02-14T06:38:00.075Z,96.73
2023-02-14T06:40:28.943Z,96.00
2023-02-14T06:42:56.394Z,96.20
2023-02-14T06:45:24.120Z,96.41
2023-02-14T06:47:51.580Z,95.78
2023-02-14T06:50:19.275Z,94.96
2023-02-14T06:52:47.325Z,95.39
2023-02-14T06:55:14.845Z,95.00
2023-02-14T06:57:43.654Z,95.18
2023-02-14T07:00:11.909Z,95.70
2023-02-14T07:02:39.393Z,96.01
2023-02-14T07:05:07.283Z,95.84
2023-02-14T07:07:34.733Z,95.26
2023-02-14T07:10:02.198Z,95.68
2023-02-14T07:12:29.649Z,96.39
2023-02-14T07:14:58.519Z,96.08
2023-02-14T07:17:26.003Z,96.47
2023-02-14T07:19:53.503Z,96.70
2023-02-14T07:22:20.951Z,96.54
2023-02-14T07:24:48.457Z,96.68
2023-02-14T07:27:15.941Z,96.54
2023-02-14T07:29:43.440Z,96.38
2023-02-14T07:32:12.423Z,96.52
2023-02-14T07:34:40.014Z,96.17
2023-02-14T07:37:07.542Z,96.02
2023-02-14T07:39:35.152Z,96.05
2023-02-14T07:42:02.835Z,96.20
2023-02-14T07:44:30.337Z,96.10
2023-02-14T07:46:57.819Z,96.28
2023-02-14T07:49:26.623Z,96.41
2023-02-14T07:51:54.165Z,96.26
2023-02-14T07:54:21.676Z,96.34
2023-02-14T07:56:49.305Z,95.84
2023-02-14T07:59:16.900Z,95.33
2023-02-14T08:01:44.643Z,96.20
2023-02-14T08:04:16.350Z,96.20
2023-02-14T08:06:45.297Z,96.46
2023-02-14T08:09:24.423Z,96.66
2023-02-14T08:12:10.094Z,97.10
2023-02-14T08:14:37.718Z,96.62
2023-02-14T08:17:07.201Z,96.79
2023-02-14T08:19:34.781Z,96.13
2023-02-14T08:22:04.475Z,95.38
2023-02-14T08:24:32.011Z,95.04
2023-02-14T08:26:59.577Z,94.27
2023-02-14T08:29:27.157Z,93.85
2023-02-14T08:31:54.811Z,94.42
2023-02-14T08:34:22.364Z,94.57
2023-02-14T08:36:49.940Z,94.79
2023-02-14T08:39:18.879Z,94.70
2023-02-14T08:41:46.336Z,94.86
2023-02-14T08:44:14.092Z,94.28
2023-02-14T08:46:41.749Z,94.88
2023-02-14T08:49:10.796Z,94.76
2023-02-14T08:51:38.283Z,94.21
2023-02-14T08:54:05.921Z,93.60
2023-02-14T08:56:35.311Z,91.84
2023-02-14T08:59:03.962Z,90.85
2023-02-14T09:01:31.515Z,91.48
2023-02-14T09:03:59.092Z,91.53
2023-02-14T09:06:26.625Z,91.66
2023-02-14T09:08:55.085Z,91.83
2023-02-14T09:11:24.360Z,91.82
2023-02-14T09:13:54.079Z,92.35
2023-02-14T09:16:22.482Z,91.96
2023-02-14T09:18:50.553Z,91.32
2023-02-14T09:21:20.249Z,90.83
2023-02-14T09:23:47.699Z,90.07
2023-02-14T09:26:16.212Z,89.85
2023-02-14T09:28:43.923Z,90.69
2023-02-14T09:31:15.333Z,90.68
2023-02-14T09:34:00.954Z,89.07
2023-02-14T09:36:28.621Z,88.81
2023-02-14T09:38:56.124Z,88.90
2023-02-14T09:41:54.677Z,89.20
2023-02-14T09:44:27.615Z,90.19
2023-02-14T09:46:58.582Z,90.29
2023-02-14T09:49:31.197Z,89.86
2023-02-14T09:51:59.487Z,89.55
2023-02-14T09:54:29.395Z,90.43
2023-02-14T09:57:00.164Z,90.69
2023-02-14T09:59:34.288Z,89.78
2023-02-14T10:02:16.325Z,89.68
2023-02-14T10:04:46.487Z,90.00
2023-02-14T10:07:20.887Z,90.74
2023-02-14T10:09:55.368Z,90.51
2023-02-14T10:12:25.376Z,90.44
2023-02-14T10:14:54.504Z,90.12
2023-02-14T10:17:29.100Z,90.56
2023-02-14T10:20:01.055Z,91.27
2023-02-14T10:22:41.203Z,92.53
2023-02-14T10:25:15.510Z,92.71
2023-02-14T10:27:46.202Z,92.84
2023-02-14T10:30:17.749Z,92.40
2023-02-14T10:32:49.974Z,92.38
2023-02-14T10:35:24.694Z,92.66
2023-02-14T10:38:01.405Z,92.14
2023-02-14T10:41:06.524Z,90.89
2023-02-14T10:43:40.239Z,90.18
2023-02-14T10:46:13.516Z,89.79
2023-02-14T10:48:50.068Z,89.48
2023-02-14T10:51:21.247Z,89.01
2023-02-14T10:53:56.747Z,88.77
2023-02-14T10:56:27.877Z,89.58
2023-02-14T10:58:57.791Z,90.96
2023-02-14T11:01:26.103Z,91.53
2023-02-14T11:03:58.476Z,92.32
2023-02-14T11:06:26.024Z,92.73
2023-02-14T11:08:55.586Z,93.21
2023-02-14T11:11:28.332Z,93.08
2023-02-14T11:13:55.871Z,92.76
2023-02-14T11:16:30.817Z,92.84
2023-02-14T11:19:11.327Z,92.05
2023-02-14T11:21:39.839Z,92.39
2023-02-14T11:24:18.594Z,91.86
2023-02-14T11:26:48.241Z,91.33
2023-02-14T11:29:27.893Z,90.69
2023-02-14T11:31:55.687Z,90.75
2023-02-14T11:34:33.522Z,90.28
2023-02-14T11:37:01.267Z,89.77
2023-02-14T11:39:31.440Z,87.65
2023-02-14T11:42:00.764Z,86.53
2023-02-14T11:44:33.051Z,86.58
2023-02-14T11:47:19.784Z,87.27
2023-02-14T11:49:58.101Z,84.81
2023-02-14T11:52:29.570Z,83.87
2023-02-14T11:54:58.071Z,83.42
2023-02-14T11:57:28.685Z,83.59
2023-02-14T11:59:57.082Z,83.42
2023-02-14T12:02:40.125Z,83.28
2023-02-14T12:05:20.855Z,82.94
2023-02-14T12:07:49.636Z,82.54
2023-02-14T12:10:21.362Z,83.74
2023-02-14T12:12:53.849Z,85.59
2023-02-14T12:15:37.668Z,85.75
2023-02-14T12:18:30.131Z,87.35
2023-02-14T12:21:02.318Z,88.23
2023-02-14T12:23:36.815Z,87.67
2023-02-14T12:26:07.387Z,86.92
2023-02-14T12:28:41.302Z,85.72
2023-02-14T12:31:11.292Z,85.38
2023-02-14T12:33:39.683Z,83.67
2023-02-14T12:36:14.157Z,83.35
2023-02-14T12:38:49.574Z,85.04
2023-02-14T12:41:26.008Z,83.08
2023-02-14T12:43:54.553Z,83.41
2023-02-14T12:46:34.451Z,82.45
2023-02-14T12:49:14.862Z,82.72
2023-02-14T12:51:50.338Z,83.49
2023-02-14T12:54:29.258Z,84.51
2023-02-14T12:57:01.417Z,84.01
2023-02-14T12:59:32.877Z,85.22
2023-02-14T13:02:31.077Z,84.81
2023-02-14T13:05:01.551Z,84.45
2023-02-14T13:08:05.005Z,83.56
2023-02-14T13:10:46.427Z,81.77
2023-02-14T13:13:21.404Z,82.33
2023-02-14T13:15:54.915Z,82.31
2023-02-14T13:18:33.547Z,81.29
2023-02-14T13:21:02.847Z,81.99
2023-02-14T13:23:35.951Z,82.92
2023-02-14T13:26:07.815Z,83.60
2023-02-14T13:28:37.480Z,82.47
2023-02-14T13:31:06.025Z,81.20
2023-02-14T13:33:36.290Z,80.82
2023-02-14T13:36:07.692Z,80.60
2023-02-14T13:38:40.563Z,79.90
2023-02-14T13:41:08.464Z,78.86
2023-02-14T13:43:46.882Z,79.22
2023-02-14T13:46:14.916Z,81.05
2023-02-14T13:48:43.449Z,79.55
2023-02-14T13:51:11.349Z,79.12
2023-02-14T13:53:42.062Z,79.76
2023-02-14T13:56:32.458Z,79.00
2023-02-14T13:59:04.351Z,78.54
2023-02-14T14:01:35.678Z,77.86
2023-02-14T14:04:06.271Z,79.12
2023-02-14T14:07:08.046Z,78.81
2023-02-14T14:10:01.442Z,80.35
2023-02-14T14:12:45.119Z,82.05
2023-02-14T14:15:21.963Z,82.10
2023-02-14T14:18:34.174Z,82.87
2023-02-14T14:21:01.658Z,83.94
2023-02-14T14:23:31.964Z,84.30
2023-02-14T14:26:01.456Z,83.38
2023-02-14T14:28:31.622Z,83.68
2023-02-14T14:30:59.393Z,82.85
2023-02-14T14:33:30.001Z,82.64
2023-02-14T14:35:59.660Z,83.17
2023-02-14T14:38:27.646Z,83.51
2023-02-14T14:40:55.613Z,82.80
2023-02-14T14:43:27.852Z,83.76
2023-02-14T14:45:56.146Z,83.29
2023-02-14T14:48:28.940Z,84.23
2023-02-14T14:50:57.058Z,83.68
2023-02-14T14:53:28.025Z,84.02
2023-02-14T14:55:55.990Z,83.21
2023-02-14T14:58:39.613Z,81.40
2023-02-14T15:01:08.669Z,81.32
2023-02-14T15:03:36.172Z,79.78
2023-02-14T15:06:07.554Z,79.29
2023-02-14T15:08:35.912Z,79.16
2023-02-14T15:11:07.457Z,79.09
2023-02-14T15:13:50.986Z,78.97
2023-02-14T15:16:20.353Z,79.46
2023-02-14T15:18:48.116Z,78.66
2023-02-14T15:21:16.504Z,80.02
2023-02-14T15:23:44.979Z,80.11
2023-02-14T15:26:18.741Z,80.16
2023-02-14T15:28:55.588Z,79.66
2023-02-14T15:31:23.715Z,79.67
2023-02-14T15:33:51.561Z,80.21
2023-02-14T15:36:21.374Z,80.39
2023-02-14T15:38:49.039Z,79.36
2023-02-14T15:41:17.765Z,80.58
2023-02-14T15:43:53.565Z,80.13
2023-02-14T15:46:29.845Z,80.20
2023-02-14T15:49:01.012Z,80.68
2023-02-14T15:51:30.789Z,81.02
2023-02-14T15:54:00.325Z,80.84
2023-02-14T15:56:29.566Z,81.65
2023-02-14T15:59:01.947Z,81.92
2023-02-14T16:01:30.716Z,82.86
2023-02-14T16:04:00.146Z,82.64
2023-02-14T16:06:38.632Z,82.16
2023-02-14T16:09:08.337Z,82.55
2023-02-14T16:11:37.172Z,82.48
2023-02-14T16:14:32.496Z,82.40
2023-02-14T16:17:02.359Z,82.44
2023-02-14T16:19:34.590Z,82.27
2023-02-14T16:22:02.481Z,81.68
2023-02-14T16:24:29.981Z,81.94
2023-02-14T16:26:58.129Z,82.32
2023-02-14T16:29:25.595Z,82.78
2023-02-14T16:32:14.478Z,83.61
2023-02-14T16:34:43.491Z,83.70
2023-02-14T16:37:21.233Z,83.49
2023-02-14T16:39:49.149Z,84.28
2023-02-14T16:42:17.767Z,83.69
2023-02-14T16:44:45.636Z,83.92
2023-02-14T16:47:15.787Z,84.62
2023-02-14T16:49:43.364Z,85.14
2023-02-14T16:52:13.374Z,85.34
2023-02-14T16:54:41.002Z,86.10
2023-02-14T16:57:13.689Z,85.72
2023-02-14T16:59:41.146Z,85.70
2023-02-14T17:02:08.754Z,85.46
2023-02-14T17:04:37.630Z,85.81
2023-02-14T17:07:06.604Z,86.08
2023-02-14T17:09:36.973Z,86.31
2023-02-14T17:12:08.322Z,86.04
2023-02-14T17:14:37.877Z,86.56
2023-02-14T17:17:05.378Z,87.32
2023-02-14T17:19:33.146Z,87.13
2023-02-14T17:22:01.955Z,87.97
2023-02-14T17:24:29.662Z,88.25
2023-02-14T17:26:57.149Z,87.93
2023-02-14T17:29:24.651Z,88.13
2023-02-14T17:31:52.168Z,89.22
2023-02-14T17:34:21.820Z,90.04
2023-02-14T17:36:49.326Z,90.75
2023-02-14T17:39:19.819Z,90.91
2023-02-14T17:41:47.430Z,90.72
2023-02-14T17:44:14.935Z,91.35
2023-02-14T17:46:42.563Z,91.28
2023-02-14T17:49:10.360Z,91.04
2023-02-14T17:51:37.926Z,91.71
2023-02-14T17:54:05.491Z,91.98
2023-02-14T17:56:34.402Z,91.57
2023-02-14T17:59:01.884Z,91.79
2023-02-14T18:01:34.224Z,92.39
2023-02-14T18:04:01.864Z,91.98
2023-02-14T18:06:29.423Z,91.67
2023-02-14T18:08:57.638Z,92.05
2023-02-14T18:11:26.764Z,91.44
2023-02-14T18:13:56.128Z,90.79
2023-02-14T18:16:24.661Z,91.06
2023-02-14T18:18:54.956Z,91.45
2023-02-14T18:21:25.855Z,91.33
2023-02-14T18:23:53.633Z,91.42
2023-02-14T18:26:23.566Z,91.61
2023-02-14T18:28:51.951Z,92.48
2023-02-14T18:31:21.684Z,92.85
2023-02-14T18:33:51.194Z,92.86
2023-02-14T18:36:20.624Z,93.20
2023-02-14T18:38:49.792Z,93.44
2023-02-14T18:41:19.450Z,93.20
2023-02-14T18:43:50.971Z,94.00
2023-02-14T18:46:22.204Z,93.76
2023-02-14T18:48:51.699Z,93.31
2023-02-14T18:51:24.490Z,92.08
2023-02-14T18:53:52.815Z,90.81
2023-02-14T18:56:22.442Z,91.49
2023-02-14T18:58:52.869Z,92.12
2023-02-14T19:01:22.285Z,92.01
2023-02-14T19:03:52.848Z,91.93
2023-02-14T19:06:21.245Z,92.20
2023-02-14T19:08:49.066Z,92.10
2023-02-14T19:11:18.284Z,92.47
2023-02-14T19:13:46.284Z,92.57
2023-02-14T19:16:17.643Z,92.62
2023-02-14T19:18:45.733Z,92.61
2023-02-14T19:21:15.568Z,92.27
2023-02-14T19:23:47.006Z,92.96
2023-02-14T19:26:19.052Z,92.92
2023-02-14T19:28:48.236Z,92.92
2023-02-14T19:31:17.844Z,92.47
2023-02-14T19:33:48.019Z,91.40
2023-02-14T19:36:20.536Z,91.06
2023-02-14T19:38:50.299Z,91.29
2023-02-14T19:41:19.756Z,91.43
2023-02-14T19:43:48.881Z,92.35
2023-02-14T19:46:17.887Z,92.76
2023-02-14T19:48:45.904Z,92.91
2023-02-14T19:51:19.966Z,93.76
2023-02-14T19:53:48.795Z,94.56
2023-02-14T19:56:23.629Z,94.53
2023-02-14T19:58:52.119Z,95.74
2023-02-14T20:01:27.962Z,95.69
2023-02-14T20:03:56.063Z,95.50
2023-02-14T20:06:26.154Z,95.94
2023-02-14T20:08:54.210Z,96.40
2023-02-14T20:11:30.437Z,96.91
2023-02-14T20:13:58.712Z,97.26
2023-02-14T20:16:27.468Z,97.15
2023-02-14T20:18:55.567Z,97.30
2023-02-14T20:21:28.297Z,97.74
2023-02-14T20:23:58.596Z,97.64
2023-02-14T20:26:26.401Z,97.65
2023-02-14T20:28:54.831Z,97.59
2023-02-14T20:31:22.782Z,97.31
2023-02-14T20:33:51.484Z,96.80
2023-02-14T20:36:19.519Z,96.24
2023-02-14T20:38:55.411Z,95.70
2023-02-14T20:41:23.558Z,96.17
2023-02-14T20:43:53.226Z,96.33
2023-02-14T20:46:21.409Z,96.52
2023-02-14T20:48:51.043Z,96.23
2023-02-14T20:51:20.795Z,96.79
2023-02-14T20:53:53.231Z,96.86
2023-02-14T20:56:24.648Z,97.02
2023-02-14T20:58:52.574Z,97.12
2023-02-14T21:01:21.636Z,97.23
2023-02-14T21:03:52.456Z,96.82
2023-02-14T21:06:21.619Z,96.29
2023-02-14T21:08:51.167Z,96.61
2023-02-14T21:11:20.598Z,96.42
2023-02-14T21:13:51.524Z,96.19
2023-02-14T21:16:20.881Z,96.39
2023-02-14T21:18:52.441Z,96.37
2023-02-14T21:21:24.231Z,96.19
2023-02-14T21:23:56.356Z,96.26
2023-02-14T21:26:24.624Z,96.32
2023-02-14T21:28:52.478Z,95.70
2023-02-14T21:31:21.962Z,94.49
2023-02-14T21:33:50.996Z,94.77
2023-02-14T21:36:19.791Z,94.07
2023-02-14T21:38:49.812Z,94.38
2023-02-14T21:41:20.461Z,93.63
2023-02-14T21:43:49.589Z,93.56
2023-02-14T21:46:18.526Z,93.86
2023-02-14T21:49:03.922Z,93.99
2023-02-14T21:51:34.046Z,93.65
2023-02-14T21:54:01.693Z,93.59
2023-02-14T21:56:30.782Z,93.63
2023-02-14T21:58:58.621Z,93.05
2023-02-14T22:01:27.940Z,92.31
2023-02-14T22:03:56.546Z,92.52
2023-02-14T22:06:24.416Z,92.99
2023-02-14T22:08:54.489Z,93.30
2023-02-14T22:11:22.818Z,93.08
2023-02-14T22:13:51.961Z,94.25
2023-02-14T22:16:23.708Z,94.29
2023-02-14T22:18:53.415Z,93.53
2023-02-14T22:21:23.451Z,94.18
2023-02-14T22:23:52.102Z,93.70
2023-02-14T22:26:22.828Z,94.06
2023-02-14T22:28:53.796Z,94.50
2023-02-14T22:31:22.117Z,95.22
2023-02-14T22:33:51.395Z,95.71
2023-02-14T22:36:19.069Z,96.47
2023-02-14T22:38:48.243Z,96.71
2023-02-14T22:41:18.134Z,96.74
2023-02-14T22:43:46.303Z,96.77
2023-02-14T22:46:17.988Z,96.41
2023-02-14T22:48:45.694Z,96.13
2023-02-14T22:51:19.650Z,95.61
2023-02-14T22:53:49.134Z,94.60
2023-02-14T22:56:21.611Z,94.82
2023-02-14T22:58:58.681Z,94.59
2023-02-14T23:01:28.602Z,95.10
2023-02-14T23:03:57.815Z,95.31
2023-02-14T23:06:27.528Z,95.31
2023-02-14T23:08:57.177Z,94.52
2023-02-14T23:11:35.188Z,94.50
2023-02-14T23:14:23.580Z,94.13
2023-02-14T23:17:10.170Z,94.46
2023-02-14T23:19:55.928Z,94.56
2023-02-14T23:22:25.167Z,94.60
2023-02-14T23:24:57.085Z,95.11
2023-02-14T23:27:27.302Z,95.15
2023-02-14T23:29:54.833Z,94.76
2023-02-14T23:32:23.751Z,94.70
2023-02-14T23:34:52.260Z,94.16
2023-02-14T23:37:19.885Z,94.66
2023-02-14T23:39:49.767Z,94.46
2023-02-14T23:42:17.307Z,94.63
2023-02-14T23:44:45.405Z,94.60
2023-02-14T23:47:13.972Z,93.48
2023-02-14T23:49:43.550Z,94.25
2023-02-14T23:52:12.939Z,94.39
2023-02-14T23:54:40.650Z,94.66
2023-02-14T23:57:08.878Z,94.76
2023-02-14T23:59:36.772Z,94.80
